sensor_id;sensor_type;location;lat;lon;timestamp;pressure;altitude;pressure_sealevel;temperature;humidity
35224;BME280;21367;51.930;8.112;2023-03-04T00:00:07;101817.59;;;4.89;78.61
35224;BME280;21367;51.930;8.112;2023-03-04T00:05:11;101815.78;;;4.88;78.81
35224;BME280;21367;51.930;8.112;2023-03-04T00:10:18;101812.38;;;4.87;78.34
35224;BME280;21367;51.930;8.112;2023-03-04T00:15:21;101820.13;;;4.58;79.94
35224;BME280;21367;51.930;8.112;2023-03-04T00:20:25;101813.75;;;4.94;79.38
35224;BME280;21367;51.930;8.112;2023-03-04T00:25:31;101807.28;;;4.77;79.82
35224;BME280;21367;51.930;8.112;2023-03-04T00:30:35;101817.44;;;4.98;79.62
35224;BME280;21367;51.930;8.112;2023-03-04T00:35:39;101809.56;;;5.05;79.02
35224;BME280;21367;51.930;8.112;2023-03-04T00:40:45;101808.25;;;5.10;79.16
35224;BME280;21367;51.930;8.112;2023-03-04T00:45:48;101804.53;;;5.17;79.10
35224;BME280;21367;51.930;8.112;2023-03-04T00:50:52;101804.72;;;4.87;80.00
35224;BME280;21367;51.930;8.112;2023-03-04T00:55:59;101801.28;;;4.87;80.16
35224;BME280;21367;51.930;8.112;2023-03-04T01:01:02;101800.66;;;4.90;80.48
35224;BME280;21367;51.930;8.112;2023-03-04T01:06:06;101797.44;;;5.13;79.77
35224;BME280;21367;51.930;8.112;2023-03-04T01:11:14;101805.84;;;5.01;80.58
35224;BME280;21367;51.930;8.112;2023-03-04T01:16:18;101800.28;;;4.95;80.18
35224;BME280;21367;51.930;8.112;2023-03-04T01:21:22;101799.50;;;4.66;80.64
35224;BME280;21367;51.930;8.112;2023-03-04T01:26:28;101788.94;;;4.81;80.46
35224;BME280;21367;51.930;8.112;2023-03-04T01:31:32;101789.72;;;4.80;80.85
35224;BME280;21367;51.930;8.112;2023-03-04T01:36:35;101786.03;;;4.77;80.57
35224;BME280;21367;51.930;8.112;2023-03-04T01:41:42;101776.72;;;4.77;80.42
35224;BME280;21367;51.930;8.112;2023-03-04T01:46:47;101779.13;;;4.76;80.87
35224;BME280;21367;51.930;8.112;2023-03-04T01:51:52;101761.41;;;4.98;80.73
35224;BME280;21367;51.930;8.112;2023-03-04T01:56:59;101761.16;;;4.84;80.87
35224;BME280;21367;51.930;8.112;2023-03-04T02:02:03;101759.63;;;4.76;81.79
35224;BME280;21367;51.930;8.112;2023-03-04T02:07:07;101746.53;;;4.92;80.63
35224;BME280;21367;51.930;8.112;2023-03-04T02:12:14;101746.63;;;5.04;80.18
35224;BME280;21367;51.930;8.112;2023-03-04T02:17:23;101749.19;;;4.94;81.15
35224;BME280;21367;51.930;8.112;2023-03-04T02:22:27;101743.31;;;5.05;80.62
35224;BME280;21367;51.930;8.112;2023-03-04T02:27:34;101744.72;;;4.91;81.18
35224;BME280;21367;51.930;8.112;2023-03-04T02:32:37;101733.03;;;4.93;81.46
35224;BME280;21367;51.930;8.112;2023-03-04T02:37:41;101739.09;;;5.05;80.61
35224;BME280;21367;51.930;8.112;2023-03-04T02:42:48;101727.56;;;4.78;81.48
35224;BME280;21367;51.930;8.112;2023-03-04T02:47:51;101731.09;;;4.91;82.50
35224;BME280;21367;51.930;8.112;2023-03-04T02:52:55;101724.34;;;4.91;81.38
35224;BME280;21367;51.930;8.112;2023-03-04T02:58:02;101715.06;;;4.81;81.67
35224;BME280;21367;51.930;8.112;2023-03-04T03:03:05;101719.69;;;4.75;81.54
35224;BME280;21367;51.930;8.112;2023-03-04T03:08:09;101718.38;;;4.91;80.48
35224;BME280;21367;51.930;8.112;2023-03-04T03:13:17;101714.72;;;4.77;81.58
35224;BME280;21367;51.930;8.112;2023-03-04T03:18:21;101711.53;;;4.69;81.44
35224;BME280;21367;51.930;8.112;2023-03-04T03:23:25;101705.06;;;4.52;82.18
35224;BME280;21367;51.930;8.112;2023-03-04T03:28:31;101703.88;;;4.79;81.38
35224;BME280;21367;51.930;8.112;2023-03-04T03:33:35;101700.69;;;4.82;81.72
35224;BME280;21367;51.930;8.112;2023-03-04T03:38:39;101701.19;;;4.88;82.21
35224;BME280;21367;51.930;8.112;2023-03-04T03:43:46;101705.44;;;4.57;82.41
35224;BME280;21367;51.930;8.112;2023-03-04T03:48:49;101696.63;;;4.63;82.50
35224;BME280;21367;51.930;8.112;2023-03-04T03:53:53;101691.53;;;4.63;82.38
35224;BME280;21367;51.930;8.112;2023-03-04T03:58:59;101699.28;;;4.85;81.98
35224;BME280;21367;51.930;8.112;2023-03-04T04:04:03;101695.47;;;4.80;82.38
35224;BME280;21367;51.930;8.112;2023-03-04T04:09:06;101693.97;;;4.62;82.96
35224;BME280;21367;51.930;8.112;2023-03-04T04:14:13;101694.81;;;4.93;81.84
35224;BME280;21367;51.930;8.112;2023-03-04T04:19:17;101699.59;;;4.58;82.82
35224;BME280;21367;51.930;8.112;2023-03-04T04:24:21;101687.09;;;4.71;83.20
35224;BME280;21367;51.930;8.112;2023-03-04T04:29:28;101691.00;;;4.88;82.73
35224;BME280;21367;51.930;8.112;2023-03-04T04:34:32;101678.06;;;5.07;81.55
35224;BME280;21367;51.930;8.112;2023-03-04T04:39:36;101677.97;;;5.05;81.88
35224;BME280;21367;51.930;8.112;2023-03-04T04:44:42;101670.47;;;4.97;81.91
35224;BME280;21367;51.930;8.112;2023-03-04T04:49:46;101671.19;;;4.74;82.00
35224;BME280;21367;51.930;8.112;2023-03-04T04:54:49;101674.47;;;4.83;82.74
35224;BME280;21367;51.930;8.112;2023-03-04T04:59:56;101673.91;;;4.97;82.41
35224;BME280;21367;51.930;8.112;2023-03-04T05:05:00;101672.47;;;5.01;83.34
35224;BME280;21367;51.930;8.112;2023-03-04T05:10:04;101676.06;;;5.03;82.68
35224;BME280;21367;51.930;8.112;2023-03-04T05:15:10;101679.69;;;4.84;83.34
35224;BME280;21367;51.930;8.112;2023-03-04T05:20:14;101675.22;;;4.92;83.10
35224;BME280;21367;51.930;8.112;2023-03-04T05:25:17;101667.44;;;4.91;82.93
35224;BME280;21367;51.930;8.112;2023-03-04T05:30:24;101681.59;;;4.87;83.93
35224;BME280;21367;51.930;8.112;2023-03-04T05:35:27;101673.41;;;4.91;84.22
35224;BME280;21367;51.930;8.112;2023-03-04T05:40:31;101676.84;;;5.02;83.31
35224;BME280;21367;51.930;8.112;2023-03-04T05:45:38;101679.00;;;4.97;83.36
35224;BME280;21367;51.930;8.112;2023-03-04T05:50:41;101682.75;;;4.80;83.71
35224;BME280;21367;51.930;8.112;2023-03-04T05:55:45;101684.94;;;4.66;84.87
35224;BME280;21367;51.930;8.112;2023-03-04T06:00:52;101685.97;;;4.68;85.82
35224;BME280;21367;51.930;8.112;2023-03-04T06:05:56;101692.88;;;4.48;85.84
35224;BME280;21367;51.930;8.112;2023-03-04T06:11:00;101684.06;;;4.65;84.80
35224;BME280;21367;51.930;8.112;2023-03-04T06:16:08;101686.88;;;4.48;85.34
35224;BME280;21367;51.930;8.112;2023-03-04T06:21:12;101687.88;;;4.70;85.17
35224;BME280;21367;51.930;8.112;2023-03-04T06:26:16;101693.94;;;4.82;85.69
35224;BME280;21367;51.930;8.112;2023-03-04T06:31:22;101683.00;;;4.83;85.45
35224;BME280;21367;51.930;8.112;2023-03-04T06:36:29;101690.06;;;5.08;85.56
35224;BME280;21367;51.930;8.112;2023-03-04T06:41:33;101699.09;;;5.15;85.35
35224;BME280;21367;51.930;8.112;2023-03-04T06:46:39;101701.09;;;5.19;85.81
35224;BME280;21367;51.930;8.112;2023-03-04T06:51:43;101705.84;;;5.14;85.78
35224;BME280;21367;51.930;8.112;2023-03-04T06:56:47;101717.00;;;4.84;86.61
35224;BME280;21367;51.930;8.112;2023-03-04T07:01:53;101713.16;;;4.89;86.87
35224;BME280;21367;51.930;8.112;2023-03-04T07:06:57;101713.31;;;5.23;86.65
35224;BME280;21367;51.930;8.112;2023-03-04T07:12:03;101721.28;;;5.05;89.08
35224;BME280;21367;51.930;8.112;2023-03-04T07:17:09;101709.56;;;5.40;88.20
35224;BME280;21367;51.930;8.112;2023-03-04T07:22:13;101704.47;;;5.29;89.67
35224;BME280;21367;51.930;8.112;2023-03-04T07:27:17;101697.63;;;5.28;89.40
35224;BME280;21367;51.930;8.112;2023-03-04T07:32:23;101710.97;;;5.36;90.59
35224;BME280;21367;51.930;8.112;2023-03-04T07:37:27;101709.75;;;5.21;91.18
35224;BME280;21367;51.930;8.112;2023-03-04T07:42:31;101700.19;;;4.76;94.26
35224;BME280;21367;51.930;8.112;2023-03-04T07:47:42;101707.69;;;4.84;93.59
35224;BME280;21367;51.930;8.112;2023-03-04T07:52:46;101703.69;;;5.08;94.80
35224;BME280;21367;51.930;8.112;2023-03-04T07:57:50;101711.38;;;4.98;94.66
35224;BME280;21367;51.930;8.112;2023-03-04T08:02:56;101714.69;;;4.87;96.70
35224;BME280;21367;51.930;8.112;2023-03-04T08:08:00;101715.69;;;4.99;96.00
35224;BME280;21367;51.930;8.112;2023-03-04T08:13:04;101710.13;;;4.83;96.69
35224;BME280;21367;51.930;8.112;2023-03-04T08:18:12;101711.66;;;5.23;95.58
35224;BME280;21367;51.930;8.112;2023-03-04T08:23:15;101710.03;;;5.14;97.12
35224;BME280;21367;51.930;8.112;2023-03-04T08:28:19;101713.00;;;5.40;95.54
35224;BME280;21367;51.930;8.112;2023-03-04T08:33:26;101716.09;;;5.26;95.96
35224;BME280;21367;51.930;8.112;2023-03-04T08:38:30;101712.38;;;5.65;94.54
35224;BME280;21367;51.930;8.112;2023-03-04T08:43:34;101706.63;;;5.35;95.97
35224;BME280;21367;51.930;8.112;2023-03-04T08:48:40;101709.03;;;5.66;95.54
35224;BME280;21367;51.930;8.112;2023-03-04T08:53:44;101710.28;;;5.71;96.77
35224;BME280;21367;51.930;8.112;2023-03-04T08:58:48;101704.25;;;5.59;97.87
35224;BME280;21367;51.930;8.112;2023-03-04T09:03:54;101701.38;;;5.12;98.84
35224;BME280;21367;51.930;8.112;2023-03-04T09:08:58;101684.72;;;5.37;99.55
35224;BME280;21367;51.930;8.112;2023-03-04T09:14:02;101699.88;;;5.79;99.58
35224;BME280;21367;51.930;8.112;2023-03-04T09:19:08;101694.84;;;5.91;96.22
35224;BME280;21367;51.930;8.112;2023-03-04T09:24:11;101697.25;;;6.00;97.40
35224;BME280;21367;51.930;8.112;2023-03-04T09:29:15;101693.81;;;5.99;97.89
35224;BME280;21367;51.930;8.112;2023-03-04T09:34:21;101696.03;;;5.85;97.69
35224;BME280;21367;51.930;8.112;2023-03-04T09:39:25;101689.22;;;5.95;97.77
35224;BME280;21367;51.930;8.112;2023-03-04T09:44:30;101689.50;;;6.10;97.07
35224;BME280;21367;51.930;8.112;2023-03-04T09:49:42;101684.41;;;6.10;97.51
35224;BME280;21367;51.930;8.112;2023-03-04T09:54:59;101693.22;;;6.25;98.54
35224;BME280;21367;51.930;8.112;2023-03-04T10:00:11;101694.28;;;6.39;97.49
35224;BME280;21367;51.930;8.112;2023-03-04T10:05:23;101693.09;;;6.12;98.66
35224;BME280;21367;51.930;8.112;2023-03-04T10:10:32;101694.47;;;5.97;100.00
35224;BME280;21367;51.930;8.112;2023-03-04T10:15:40;101688.53;;;6.20;100.00
35224;BME280;21367;51.930;8.112;2023-03-04T10:20:53;101681.31;;;6.71;98.88
35224;BME280;21367;51.930;8.112;2023-03-04T10:26:01;101692.41;;;6.72;99.00
35224;BME280;21367;51.930;8.112;2023-03-04T10:31:18;101681.16;;;7.29;94.89
35224;BME280;21367;51.930;8.112;2023-03-04T10:36:35;101678.53;;;7.15;92.93
35224;BME280;21367;51.930;8.112;2023-03-04T10:41:43;101669.41;;;6.95;94.30
35224;BME280;21367;51.930;8.112;2023-03-04T10:46:48;101668.38;;;7.17;92.90
35224;BME280;21367;51.930;8.112;2023-03-04T10:52:01;101670.88;;;6.68;95.10
35224;BME280;21367;51.930;8.112;2023-03-04T10:57:14;101669.00;;;6.89;94.56
35224;BME280;21367;51.930;8.112;2023-03-04T11:02:21;101675.97;;;6.68;97.06
35224;BME280;21367;51.930;8.112;2023-03-04T11:07:28;101665.97;;;7.07;95.29
35224;BME280;21367;51.930;8.112;2023-03-04T11:12:33;101665.31;;;6.98;95.80
35224;BME280;21367;51.930;8.112;2023-03-04T11:17:41;101665.28;;;7.21;93.68
35224;BME280;21367;51.930;8.112;2023-03-04T11:22:51;101656.16;;;7.36;93.80
35224;BME280;21367;51.930;8.112;2023-03-04T11:27:58;101654.97;;;8.06;89.42
35224;BME280;21367;51.930;8.112;2023-03-04T11:33:21;101639.69;;;8.08;86.87
35224;BME280;21367;51.930;8.112;2023-03-04T11:38:32;101650.00;;;8.21;86.97
35224;BME280;21367;51.930;8.112;2023-03-04T11:43:41;101626.75;;;8.31;85.18
35224;BME280;21367;51.930;8.112;2023-03-04T11:48:51;101636.00;;;8.29;84.21
35224;BME280;21367;51.930;8.112;2023-03-04T11:54:11;101632.06;;;8.21;85.75
35224;BME280;21367;51.930;8.112;2023-03-04T12:10:21;101603.03;;;9.00;82.70
35224;BME280;21367;51.930;8.112;2023-03-04T12:15:31;101597.53;;;9.36;80.22
35224;BME280;21367;51.930;8.112;2023-03-04T12:20:55;101595.81;;;9.21;80.67
35224;BME280;21367;51.930;8.112;2023-03-04T12:26:10;101585.31;;;8.64;80.27
35224;BME280;21367;51.930;8.112;2023-03-04T12:31:32;101571.34;;;8.45;81.62
35224;BME280;21367;51.930;8.112;2023-03-04T12:36:41;101563.66;;;8.45;81.34
35224;BME280;21367;51.930;8.112;2023-03-04T12:41:56;101552.28;;;9.23;79.53
35224;BME280;21367;51.930;8.112;2023-03-04T12:47:22;101554.38;;;8.34;80.50
35224;BME280;21367;51.930;8.112;2023-03-04T12:52:43;101560.97;;;7.79;81.41
35224;BME280;21367;51.930;8.112;2023-03-04T12:57:54;101552.50;;;7.41;80.87
35224;BME280;21367;51.930;8.112;2023-03-04T13:03:05;101560.75;;;6.89;81.07
35224;BME280;21367;51.930;8.112;2023-03-04T13:08:21;101557.41;;;7.02;81.44
35224;BME280;21367;51.930;8.112;2023-03-04T13:13:39;101551.88;;;7.21;80.18
35224;BME280;21367;51.930;8.112;2023-03-04T13:18:43;101546.94;;;7.60;79.18
35224;BME280;21367;51.930;8.112;2023-03-04T13:23:49;101544.50;;;8.27;78.13
35224;BME280;21367;51.930;8.112;2023-03-04T13:34:45;101538.81;;;8.57;74.52
35224;BME280;21367;51.930;8.112;2023-03-04T13:45:36;101539.56;;;8.17;75.74
35224;BME280;21367;51.930;8.112;2023-03-04T13:50:44;101527.47;;;7.62;76.07
35224;BME280;21367;51.930;8.112;2023-03-04T13:56:04;101519.69;;;7.99;74.97
35224;BME280;21367;51.930;8.112;2023-03-04T14:01:25;101521.94;;;8.08;74.66
35224;BME280;21367;51.930;8.112;2023-03-04T14:06:30;101523.59;;;7.94;73.30
35224;BME280;21367;51.930;8.112;2023-03-04T14:11:35;101523.19;;;7.75;75.58
35224;BME280;21367;51.930;8.112;2023-03-04T14:16:48;101518.00;;;7.61;77.73
35224;BME280;21367;51.930;8.112;2023-03-04T14:21:53;101525.75;;;7.00;81.87
35224;BME280;21367;51.930;8.112;2023-03-04T14:27:10;101532.94;;;6.57;84.96
35224;BME280;21367;51.930;8.112;2023-03-04T14:32:17;101530.31;;;6.55;85.33
35224;BME280;21367;51.930;8.112;2023-03-04T14:37:23;101507.03;;;6.76;84.08
35224;BME280;21367;51.930;8.112;2023-03-04T14:42:36;101504.13;;;6.83;79.85
35224;BME280;21367;51.930;8.112;2023-03-04T14:47:45;101499.00;;;7.45;74.90
35224;BME280;21367;51.930;8.112;2023-03-04T14:52:50;101500.72;;;7.07;74.96
35224;BME280;21367;51.930;8.112;2023-03-04T14:58:06;101503.47;;;7.35;75.28
35224;BME280;21367;51.930;8.112;2023-03-04T15:03:21;101497.72;;;7.51;75.60
35224;BME280;21367;51.930;8.112;2023-03-04T15:08:27;101493.88;;;7.19;75.45
35224;BME280;21367;51.930;8.112;2023-03-04T15:13:39;101499.72;;;6.80;76.14
35224;BME280;21367;51.930;8.112;2023-03-04T15:18:56;101493.59;;;6.78;75.91
35224;BME280;21367;51.930;8.112;2023-03-04T15:24:01;101490.69;;;6.85;76.45
35224;BME280;21367;51.930;8.112;2023-03-04T15:29:12;101488.97;;;6.61;75.26
35224;BME280;21367;51.930;8.112;2023-03-04T15:34:19;101492.53;;;7.00;74.30
35224;BME280;21367;51.930;8.112;2023-03-04T15:39:23;101490.25;;;6.79;75.13
35224;BME280;21367;51.930;8.112;2023-03-04T15:44:27;101492.66;;;6.41;75.52
35224;BME280;21367;51.930;8.112;2023-03-04T15:49:33;101497.47;;;6.36;75.87
35224;BME280;21367;51.930;8.112;2023-03-04T15:54:37;101495.31;;;6.42;73.75
35224;BME280;21367;51.930;8.112;2023-03-04T15:59:41;101492.97;;;6.45;74.39
35224;BME280;21367;51.930;8.112;2023-03-04T16:04:47;101503.31;;;6.23;74.55
35224;BME280;21367;51.930;8.112;2023-03-04T16:09:55;101498.00;;;6.44;74.63
35224;BME280;21367;51.930;8.112;2023-03-04T16:15:01;101503.00;;;6.07;75.12
35224;BME280;21367;51.930;8.112;2023-03-04T16:20:10;101508.78;;;6.16;76.37
35224;BME280;21367;51.930;8.112;2023-03-04T16:25:15;101493.69;;;5.96;78.15
35224;BME280;21367;51.930;8.112;2023-03-04T16:30:22;101489.78;;;6.01;78.37
35224;BME280;21367;51.930;8.112;2023-03-04T16:35:30;101496.34;;;6.09;79.22
35224;BME280;21367;51.930;8.112;2023-03-04T16:40:35;101497.66;;;5.92;80.69
35224;BME280;21367;51.930;8.112;2023-03-04T16:45:40;101488.09;;;5.78;81.64
35224;BME280;21367;51.930;8.112;2023-03-04T16:50:46;101486.97;;;5.74;80.46
35224;BME280;21367;51.930;8.112;2023-03-04T16:55:50;101487.00;;;5.86;80.36
35224;BME280;21367;51.930;8.112;2023-03-04T17:00:54;101493.16;;;5.66;80.70
35224;BME280;21367;51.930;8.112;2023-03-04T17:06:01;101493.09;;;5.88;80.56
35224;BME280;21367;51.930;8.112;2023-03-04T17:11:04;101501.28;;;5.72;79.83
35224;BME280;21367;51.930;8.112;2023-03-04T17:16:10;101508.13;;;5.73;80.52
35224;BME280;21367;51.930;8.112;2023-03-04T17:21:19;101505.50;;;5.38;80.99
35224;BME280;21367;51.930;8.112;2023-03-04T17:26:23;101506.09;;;5.46;80.14
35224;BME280;21367;51.930;8.112;2023-03-04T17:31:27;101514.22;;;5.64;79.45
35224;BME280;21367;51.930;8.112;2023-03-04T17:36:33;101522.22;;;5.34;79.97
35224;BME280;21367;51.930;8.112;2023-03-04T17:41:37;101524.78;;;5.34;80.51
35224;BME280;21367;51.930;8.112;2023-03-04T17:46:41;101519.13;;;5.39;79.96
35224;BME280;21367;51.930;8.112;2023-03-04T17:51:47;101516.09;;;5.21;80.48
35224;BME280;21367;51.930;8.112;2023-03-04T17:56:52;101513.41;;;5.19;80.29
35224;BME280;21367;51.930;8.112;2023-03-04T18:01:56;101518.00;;;5.35;79.03
35224;BME280;21367;51.930;8.112;2023-03-04T18:07:02;101506.50;;;5.40;78.84
35224;BME280;21367;51.930;8.112;2023-03-04T18:12:06;101513.28;;;5.40;78.79
35224;BME280;21367;51.930;8.112;2023-03-04T18:17:10;101520.41;;;5.00;78.62
35224;BME280;21367;51.930;8.112;2023-03-04T18:22:16;101520.41;;;5.00;77.87
35224;BME280;21367;51.930;8.112;2023-03-04T18:27:20;101518.75;;;5.00;77.68
35224;BME280;21367;51.930;8.112;2023-03-04T18:32:24;101511.28;;;4.92;77.74
35224;BME280;21367;51.930;8.112;2023-03-04T18:37:30;101515.81;;;5.06;77.28
35224;BME280;21367;51.930;8.112;2023-03-04T18:42:34;101513.97;;;4.93;77.74
35224;BME280;21367;51.930;8.112;2023-03-04T18:47:38;101517.28;;;5.14;77.27
35224;BME280;21367;51.930;8.112;2023-03-04T18:52:45;101523.38;;;4.94;78.16
35224;BME280;21367;51.930;8.112;2023-03-04T18:57:51;101519.75;;;5.24;78.04
35224;BME280;21367;51.930;8.112;2023-03-04T19:02:59;101516.91;;;5.09;77.95
35224;BME280;21367;51.930;8.112;2023-03-04T19:08:07;101530.91;;;4.93;79.10
35224;BME280;21367;51.930;8.112;2023-03-04T19:13:11;101524.56;;;5.09;78.13
35224;BME280;21367;51.930;8.112;2023-03-04T19:18:17;101520.75;;;4.82;79.21
35224;BME280;21367;51.930;8.112;2023-03-04T19:23:24;101535.94;;;5.03;79.34
35224;BME280;21367;51.930;8.112;2023-03-04T19:28:28;101540.00;;;4.79;80.84
35224;BME280;21367;51.930;8.112;2023-03-04T19:33:34;101540.44;;;4.73;82.64
35224;BME280;21367;51.930;8.112;2023-03-04T19:38:40;101547.66;;;4.79;85.72
35224;BME280;21367;51.930;8.112;2023-03-04T19:43:44;101549.25;;;4.24;88.42
35224;BME280;21367;51.930;8.112;2023-03-04T19:48:48;101546.03;;;4.37;88.51
35224;BME280;21367;51.930;8.112;2023-03-04T19:53:54;101552.09;;;4.49;88.94
35224;BME280;21367;51.930;8.112;2023-03-04T19:58:58;101541.03;;;4.38;87.30
35224;BME280;21367;51.930;8.112;2023-03-04T20:04:03;101544.38;;;4.37;87.17
35224;BME280;21367;51.930;8.112;2023-03-04T20:09:11;101546.56;;;4.33;86.18
35224;BME280;21367;51.930;8.112;2023-03-04T20:14:16;101546.38;;;4.41;85.78
35224;BME280;21367;51.930;8.112;2023-03-04T20:19:20;101539.84;;;4.23;86.56
35224;BME280;21367;51.930;8.112;2023-03-04T20:24:26;101546.19;;;4.18;86.15
35224;BME280;21367;51.930;8.112;2023-03-04T20:29:30;101551.44;;;4.09;86.46
35224;BME280;21367;51.930;8.112;2023-03-04T20:34:34;101545.44;;;4.19;86.70
35224;BME280;21367;51.930;8.112;2023-03-04T20:39:40;101551.22;;;4.38;85.90
35224;BME280;21367;51.930;8.112;2023-03-04T20:44:43;101557.34;;;4.40;84.80
35224;BME280;21367;51.930;8.112;2023-03-04T20:49:47;101554.25;;;4.45;85.44
35224;BME280;21367;51.930;8.112;2023-03-04T20:54:53;101552.13;;;4.39;85.90
35224;BME280;21367;51.930;8.112;2023-03-04T20:59:57;101553.31;;;4.64;85.40
35224;BME280;21367;51.930;8.112;2023-03-04T21:05:03;101553.47;;;4.88;84.48
35224;BME280;21367;51.930;8.112;2023-03-04T21:10:10;101543.19;;;4.44;85.34
35224;BME280;21367;51.930;8.112;2023-03-04T21:15:17;101540.31;;;4.72;84.96
35224;BME280;21367;51.930;8.112;2023-03-04T21:20:22;101534.72;;;4.66;85.11
35224;BME280;21367;51.930;8.112;2023-03-04T21:25:28;101528.66;;;4.53;85.59
35224;BME280;21367;51.930;8.112;2023-03-04T21:30:32;101525.84;;;4.18;87.95
35224;BME280;21367;51.930;8.112;2023-03-04T21:35:36;101524.97;;;4.17;87.64
35224;BME280;21367;51.930;8.112;2023-03-04T21:40:42;101521.84;;;4.32;87.80
35224;BME280;21367;51.930;8.112;2023-03-04T21:45:50;101515.53;;;4.27;87.11
35224;BME280;21367;51.930;8.112;2023-03-04T21:50:53;101518.44;;;4.31;87.57
35224;BME280;21367;51.930;8.112;2023-03-04T21:56:00;101514.47;;;4.35;87.35
35224;BME280;21367;51.930;8.112;2023-03-04T22:01:08;101503.16;;;4.31;86.17
35224;BME280;21367;51.930;8.112;2023-03-04T22:06:12;101502.97;;;4.50;85.62
35224;BME280;21367;51.930;8.112;2023-03-04T22:11:19;101505.84;;;4.33;86.54
35224;BME280;21367;51.930;8.112;2023-03-04T22:16:23;101502.91;;;4.28;86.15
35224;BME280;21367;51.930;8.112;2023-03-04T22:21:27;101494.97;;;4.46;84.90
35224;BME280;21367;51.930;8.112;2023-03-04T22:26:33;101490.53;;;4.01;87.02
35224;BME280;21367;51.930;8.112;2023-03-04T22:31:37;101492.78;;;4.18;87.18
35224;BME280;21367;51.930;8.112;2023-03-04T22:36:43;101485.97;;;4.39;86.12
35224;BME280;21367;51.930;8.112;2023-03-04T22:41:51;101484.28;;;4.07;86.10
35224;BME280;21367;51.930;8.112;2023-03-04T22:46:54;101485.19;;;4.08;86.95
35224;BME280;21367;51.930;8.112;2023-03-04T22:51:58;101478.13;;;4.26;85.62
35224;BME280;21367;51.930;8.112;2023-03-04T22:57:04;101468.06;;;4.27;84.45
35224;BME280;21367;51.930;8.112;2023-03-04T23:02:07;101455.00;;;4.45;84.14
35224;BME280;21367;51.930;8.112;2023-03-04T23:07:11;101462.34;;;4.30;84.84
35224;BME280;21367;51.930;8.112;2023-03-04T23:12:17;101456.56;;;4.43;83.93
35224;BME280;21367;51.930;8.112;2023-03-04T23:17:21;101452.66;;;4.36;84.22
35224;BME280;21367;51.930;8.112;2023-03-04T23:22:25;101448.75;;;3.87;86.13
35224;BME280;21367;51.930;8.112;2023-03-04T23:27:31;101442.72;;;3.97;86.76
35224;BME280;21367;51.930;8.112;2023-03-04T23:32:35;101446.50;;;4.12;86.50
35224;BME280;21367;51.930;8.112;2023-03-04T23:37:39;101449.50;;;3.86;86.81
35224;BME280;21367;51.930;8.112;2023-03-04T23:42:45;101448.88;;;3.78;88.10
35224;BME280;21367;51.930;8.112;2023-03-04T23:47:49;101449.84;;;4.01;87.68
35224;BME280;21367;51.930;8.112;2023-03-04T23:52:52;101445.63;;;4.11;87.16
35224;BME280;21367;51.930;8.112;2023-03-04T23:57:59;101436.63;;;4.05;87.13
